Time,TemperatureF,DewpointF,PressureIn,WindDirection,WindDirectionDegrees,WindSpeedMPH,WindSpeedGustMPH,Humidity,HourlyPrecipIn,Conditions,Clouds,dailyrainin,SoftwareType,DateUTC
2013-09-30 06:12:00,47.9,43.0,30.10,NNW,344,0.0,-999.0,82,-99.99,,,0.01,weatherlink.com 1.10,2013-09-30 10:12:00,
2013-09-30 06:16:00,47.9,43.0,30.10,NNW,344,0.0,-999.0,82,-99.99,,,0.01,weatherlink.com 1.10,2013-09-30 10:16:00,
2013-09-30 06:32:00,48.0,43.0,30.10,NNW,344,0.0,-999.0,82,-99.99,,,0.01,weatherlink.com 1.10,2013-09-30 10:32:00,
2013-09-30 06:47:00,48.1,43.0,30.10,NNW,344,0.0,-999.0,82,-99.99,,,0.01,weatherlink.com 1.10,2013-09-30 10:47:00,
2013-09-30 07:02:00,48.1,43.0,30.11,NNW,344,0.0,-999.0,82,-99.99,,,0.01,weatherlink.com 1.10,2013-09-30 11:02:00,
2013-09-30 07:17:00,47.1,42.0,30.11,NNW,344,0.0,-999.0,83,-99.99,,,0.01,weatherlink.com 1.10,2013-09-30 11:17:00,
2013-09-30 07:32:00,46.7,42.0,30.10,NNW,344,0.0,-999.0,83,-99.99,,,0.01,weatherlink.com 1.10,2013-09-30 11:32:00,
2013-09-30 07:47:00,46.7,42.0,30.11,NNW,344,0.0,-999.0,83,-99.99,,,0.01,weatherlink.com 1.10,2013-09-30 11:47:00,
2013-09-30 08:02:00,47.2,42.0,30.11,NNW,344,0.0,-999.0,82,-99.99,,,0.01,weatherlink.com 1.10,2013-09-30 12:02:00,
2013-09-30 08:17:00,47.9,43.0,30.11,NNW,344,0.0,-999.0,82,-99.99,,,0.01,weatherlink.com 1.10,2013-09-30 12:17:00,
2013-09-30 08:32:00,48.5,43.0,30.11,NNW,344,0.0,-999.0,82,-99.99,,,0.01,weatherlink.com 1.10,2013-09-30 12:32:00,
2013-09-30 08:47:00,49.2,44.0,30.11,NNW,344,0.0,-999.0,82,-99.99,,,0.01,weatherlink.com 1.10,2013-09-30 12:47:00,
2013-09-30 09:02:00,50.2,45.0,30.10,NNW,344,0.0,-999.0,82,-99.99,,,0.01,weatherlink.com 1.10,2013-09-30 13:02:00,
2013-09-30 09:17:00,51.3,46.0,30.10,NNW,344,0.0,-999.0,81,-99.99,,,0.01,weatherlink.com 1.10,2013-09-30 13:17:00,
2013-09-30 09:33:00,52.7,47.0,30.09,NNW,344,0.0,-999.0,81,-99.99,,,0.01,weatherlink.com 1.10,2013-09-30 13:33:00,
2013-09-30 09:48:00,53.5,48.0,30.09,North,11,0.0,-999.0,81,-99.99,,,0.01,weatherlink.com 1.10,2013-09-30 13:48:00,
2013-09-30 10:03:00,54.6,49.0,30.08,North,11,0.0,-999.0,81,-99.99,,,0.01,weatherlink.com 1.10,2013-09-30 14:03:00,
2013-09-30 10:18:00,56.1,51.0,30.09,North,11,0.0,-999.0,82,-99.99,,,0.01,weatherlink.com 1.10,2013-09-30 14:18:00,
2013-09-30 10:33:00,57.9,52.0,30.08,North,11,0.0,-999.0,82,-99.99,,,0.01,weatherlink.com 1.10,2013-09-30 14:33:00,
2013-09-30 10:48:00,59.7,54.0,30.08,North,11,0.0,-999.0,80,-99.99,,,0.01,weatherlink.com 1.10,2013-09-30 14:48:00,
2013-09-30 11:03:00,62.1,54.0,30.08,NNE,24,0.0,-999.0,74,-99.99,,,0.01,weatherlink.com 1.10,2013-09-30 15:03:00,
2013-09-30 11:18:00,63.6,54.0,30.07,WNW,293,0.0,-999.0,70,-99.99,,,0.01,weatherlink.com 1.10,2013-09-30 15:18:00,
2013-09-30 11:34:00,65.1,54.0,30.07,WNW,293,0.0,-999.0,68,-99.99,,,0.01,weatherlink.com 1.10,2013-09-30 15:34:00,
2013-09-30 11:49:00,66.5,54.0,30.06,NNW,342,1.0,-999.0,65,-99.99,,,0.01,weatherlink.com 1.10,2013-09-30 15:49:00,
2013-09-30 12:04:00,67.5,54.0,30.05,NNW,342,0.0,-999.0,63,-99.99,,,0.01,weatherlink.com 1.10,2013-09-30 16:04:00,
2013-09-30 12:19:00,68.7,55.0,30.05,ENE,71,0.0,-999.0,61,-99.99,,,0.01,weatherlink.com 1.10,2013-09-30 16:19:00,
2013-09-30 12:34:00,69.4,54.0,30.04,ESE,106,0.0,-999.0,59,-99.99,,,0.01,weatherlink.com 1.10,2013-09-30 16:34:00,
2013-09-30 12:49:00,69.2,55.0,30.03,NE,54,0.0,-999.0,60,-99.99,,,0.01,weatherlink.com 1.10,2013-09-30 16:49:00,
2013-09-30 13:04:00,69.7,54.0,30.03,West,265,0.0,-999.0,58,-99.99,,,0.01,weatherlink.com 1.10,2013-09-30 17:04:00,
2013-09-30 13:19:00,70.6,54.0,30.02,South,185,0.0,-999.0,56,-99.99,,,0.01,weatherlink.com 1.10,2013-09-30 17:19:00,
2013-09-30 13:35:00,69.8,55.0,30.02,South,186,0.0,-999.0,60,-99.99,,,0.01,weatherlink.com 1.10,2013-09-30 17:35:00,
2013-09-30 13:50:00,70.3,56.0,30.02,SW,228,0.0,-999.0,60,-99.99,,,0.01,weatherlink.com 1.10,2013-09-30 17:50:00,
2013-09-30 14:05:00,72.1,56.0,30.02,NE,46,0.0,-999.0,57,-99.99,,,0.01,weatherlink.com 1.10,2013-09-30 18:05:00,
2013-09-30 14:20:00,70.7,56.0,30.02,NE,46,0.0,-999.0,60,-99.99,,,0.01,weatherlink.com 1.10,2013-09-30 18:20:00,
2013-09-30 14:35:00,70.3,55.0,30.01,SSE,155,0.0,-999.0,58,-99.99,,,0.01,weatherlink.com 1.10,2013-09-30 18:35:00,
2013-09-30 14:50:00,70.3,54.0,30.01,SW,216,0.0,-999.0,57,-99.99,,,0.01,weatherlink.com 1.10,2013-09-30 18:50:00,
2013-09-30 15:05:00,70.0,54.0,30.00,NW,317,0.0,-999.0,58,-99.99,,,0.01,weatherlink.com 1.10,2013-09-30 19:05:00,
2013-09-30 15:20:00,69.5,54.0,30.00,NW,317,0.0,-999.0,58,-99.99,,,0.01,weatherlink.com 1.10,2013-09-30 19:20:00,
2013-09-30 15:50:00,69.4,54.0,30.00,NW,317,0.0,-999.0,59,-99.99,,,0.01,weatherlink.com 1.10,2013-09-30 19:50:00,
2013-09-30 16:05:00,69.0,55.0,30.00,NW,317,0.0,-999.0,61,-99.99,,,0.01,weatherlink.com 1.10,2013-09-30 20:05:00,
2013-09-30 16:20:00,67.9,55.0,30.00,NW,317,0.0,-999.0,63,-99.99,,,0.01,weatherlink.com 1.10,2013-09-30 20:20:00,
2013-09-30 16:36:00,67.3,55.0,29.99,NW,317,0.0,-999.0,65,-99.99,,,0.01,weatherlink.com 1.10,2013-09-30 20:36:00,
2013-09-30 16:51:00,67.2,55.0,29.99,NW,317,0.0,-999.0,66,-99.99,,,0.01,weatherlink.com 1.10,2013-09-30 20:51:00,
2013-09-30 17:06:00,67.9,54.0,29.99,NW,317,0.0,-999.0,62,-99.99,,,0.01,weatherlink.com 1.10,2013-09-30 21:06:00,
2013-09-30 17:21:00,68.3,55.0,29.98,NW,317,0.0,-999.0,62,-99.99,,,0.01,weatherlink.com 1.10,2013-09-30 21:21:00,
2013-09-30 17:36:00,68.3,55.0,29.98,NW,317,0.0,-999.0,62,-99.99,,,0.01,weatherlink.com 1.10,2013-09-30 21:36:00,
2013-09-30 17:51:00,67.9,55.0,29.99,NW,317,0.0,-999.0,63,-99.99,,,0.01,weatherlink.com 1.10,2013-09-30 21:51:00,
2013-09-30 18:06:00,67.3,55.0,29.99,NW,317,0.0,-999.0,66,-99.99,,,0.01,weatherlink.com 1.10,2013-09-30 22:06:00,
2013-09-30 18:21:00,66.2,56.0,29.99,NW,317,0.0,-999.0,70,-99.99,,,0.01,weatherlink.com 1.10,2013-09-30 22:21:00,
2013-09-30 18:36:00,64.8,57.0,29.99,NW,317,0.0,-999.0,76,-99.99,,,0.01,weatherlink.com 1.10,2013-09-30 22:36:00,
2013-09-30 18:51:00,63.2,56.0,29.99,NW,317,0.0,-999.0,77,-99.99,,,0.01,weatherlink.com 1.10,2013-09-30 22:51:00,
2013-09-30 19:06:00,62.2,56.0,30.00,NW,317,0.0,-999.0,79,-99.99,,,0.01,weatherlink.com 1.10,2013-09-30 23:06:00,
2013-09-30 19:21:00,61.1,55.0,30.00,NW,317,0.0,-999.0,80,-99.99,,,0.01,weatherlink.com 1.10,2013-09-30 23:21:00,
2013-09-30 19:36:00,60.1,54.0,30.00,NW,317,0.0,-999.0,81,-99.99,,,0.01,weatherlink.com 1.10,2013-09-30 23:36:00,
2013-09-30 19:52:00,58.8,53.0,30.00,NW,317,0.0,-999.0,81,-99.99,,,0.01,weatherlink.com 1.10,2013-09-30 23:52:00,
2013-09-30 20:07:00,58.0,53.0,30.01,NW,317,0.0,-999.0,82,-99.99,,,0.01,weatherlink.com 1.10,2013-10-01 00:07:00,
2013-09-30 20:22:00,57.4,52.0,30.01,NW,317,0.0,-999.0,82,-99.99,,,0.01,weatherlink.com 1.10,2013-10-01 00:22:00,
2013-09-30 20:37:00,56.9,52.0,30.01,NW,317,0.0,-999.0,82,-99.99,,,0.01,weatherlink.com 1.10,2013-10-01 00:37:00,
2013-09-30 20:52:00,56.4,51.0,30.01,NW,317,0.0,-999.0,82,-99.99,,,0.01,weatherlink.com 1.10,2013-10-01 00:52:00,
2013-09-30 21:07:00,55.8,50.0,30.01,NW,317,0.0,-999.0,82,-99.99,,,0.01,weatherlink.com 1.10,2013-10-01 01:07:00,
2013-09-30 21:22:00,55.3,50.0,30.02,NW,317,0.0,-999.0,82,-99.99,,,0.01,weatherlink.com 1.10,2013-10-01 01:22:00,
2013-09-30 21:37:00,54.9,50.0,30.02,NW,317,0.0,-999.0,83,-99.99,,,0.01,weatherlink.com 1.10,2013-10-01 01:37:00,
2013-09-30 21:52:00,54.4,49.0,30.02,NW,317,0.0,-999.0,83,-99.99,,,0.01,weatherlink.com 1.10,2013-10-01 01:52:00,
2013-09-30 22:07:00,54.1,49.0,30.02,NW,317,0.0,-999.0,83,-99.99,,,0.01,weatherlink.com 1.10,2013-10-01 02:07:00,
2013-09-30 22:22:00,53.7,49.0,30.01,NW,317,0.0,-999.0,83,-99.99,,,0.01,weatherlink.com 1.10,2013-10-01 02:22:00,
2013-09-30 22:37:00,53.4,48.0,30.02,NW,317,0.0,-999.0,82,-99.99,,,0.01,weatherlink.com 1.10,2013-10-01 02:37:00,
2013-09-30 22:52:00,53.1,48.0,30.02,NW,317,0.0,-999.0,82,-99.99,,,0.01,weatherlink.com 1.10,2013-10-01 02:52:00,
2013-09-30 23:07:00,52.8,48.0,30.02,NW,317,0.0,-999.0,83,-99.99,,,0.01,weatherlink.com 1.10,2013-10-01 03:07:00,